HSPN

Port Sudan New International Airport

Port Sudan, Sudan
TAF HSPN 181100Z 1812/1918 03012G22KT 8000 PROB30 TEMPO 1812/1818 6000 FEW030 SCT130 BECMG 1821/1823 32006KT
Issued Valid From Valid To
Oct-18 @ 11:00 UTC
(an hour ago)
Oct-18 @ 12:00 UTC
(21 minutes ago)
Oct-19 @ 18:00 UTC
(-1 days ago)
Oct-18 @ 12:00 to Oct-18 @ 21:00
TAF HSPN 181100Z 1812/1918 03012G22KT 8000
Wind Visibility
30° at 12 knots
 Gusting to 22 knots
7,998 meters
Temporary  (Probability 30%) Oct-18 @ 12:00 to Oct-18 @ 18:00
PROB30 TEMPO 1812/1818 6000 FEW030 SCT130
Visibility Clouds
6,003 meters
  • Few at 3,000' AGL
  • Scattered at 13,000' AGL
Becoming Oct-18 @ 21:00 to Oct-19 @ 18:00
BECMG 1821/1823 32006KT
Wind Visibility
320° at 6 knots 7,998 meters
TAF HSPN 181100Z 1812/1918 03012G22KT 8000 PROB30 TEMPO 1812/1818 6000 FEW030 SCT130 BECMG 1821/1823 32006KT
Issued Oct-18 @ 11:00 UTC
(an hour ago)
Valid From Oct-18 @ 12:00 UTC
(21 minutes ago)
Valid To Oct-19 @ 18:00 UTC
(-1 days ago)
Oct-18 @ 12:00 - Oct-18 @ 21:00
Wind Visibility
30° at 12 knots
 Gusting to 22 knots
7,998 meters
Probability 30% Temporary Oct-18 @ 12:00 - Oct-18 @ 18:00
Clouds
  • Few at 3,000' AGL
  • Scattered at 13,000' AGL
Becoming Oct-18 @ 21:00 - Oct-19 @ 18:00
Wind Visibility
320° at 6 knots 7,998 meters